createdAt,value
2023-04-15T00:02:55.673Z,9.57
2023-04-15T00:08:18.715Z,9.13
2023-04-15T00:13:41.122Z,9.65
2023-04-15T00:19:03.548Z,8.87
2023-04-15T00:24:26.354Z,9.00
2023-04-15T00:29:48.730Z,10.07
2023-04-15T00:35:11.191Z,10.20
2023-04-15T00:40:35.808Z,10.77
2023-04-15T00:45:58.780Z,10.53
2023-04-15T00:51:21.089Z,10.57
2023-04-15T00:56:46.582Z,9.63
2023-04-15T01:02:09.472Z,9.80
2023-04-15T01:07:32.345Z,9.83
2023-04-15T01:12:55.170Z,10.28
2023-04-15T01:18:18.941Z,10.05
2023-04-15T01:23:43.047Z,9.20
2023-04-15T01:29:05.288Z,10.18
2023-04-15T01:34:27.661Z,10.15
2023-04-15T01:39:50.172Z,10.77
2023-04-15T01:45:13.632Z,10.97
2023-04-15T01:50:37.417Z,10.83
2023-04-15T01:55:59.806Z,9.93
2023-04-15T02:01:22.669Z,9.27
2023-04-15T02:06:45.337Z,9.35
2023-04-15T02:12:07.591Z,9.57
2023-04-15T02:17:30.026Z,9.03
2023-04-15T02:22:52.808Z,8.68
2023-04-15T02:28:16.642Z,8.68
2023-04-15T02:33:40.798Z,9.07
2023-04-15T02:39:03.897Z,10.03
2023-04-15T02:44:27.653Z,9.77
2023-04-15T02:49:51.544Z,9.33
2023-04-15T02:55:14.458Z,8.95
2023-04-15T03:00:36.797Z,8.80
2023-04-15T03:05:59.157Z,8.43
2023-04-15T03:11:21.824Z,8.25
2023-04-15T03:16:44.134Z,8.48
2023-04-15T03:22:06.518Z,7.80
2023-04-15T03:27:28.824Z,8.70
2023-04-15T03:32:51.891Z,8.68
2023-04-15T03:38:14.180Z,8.73
2023-04-15T03:43:36.515Z,8.63
2023-04-15T03:48:59.814Z,8.10
2023-04-15T03:54:23.072Z,8.03
2023-04-15T03:59:45.878Z,8.15
2023-04-15T04:05:08.668Z,8.78
2023-04-15T04:10:31.178Z,8.40
2023-04-15T04:15:54.135Z,8.15
2023-04-15T04:21:16.670Z,8.48
2023-04-15T04:26:38.990Z,7.78
2023-04-15T04:32:01.357Z,8.50
2023-04-15T04:37:24.002Z,9.38
2023-04-15T04:42:46.767Z,8.18
2023-04-15T04:48:10.699Z,7.97
2023-04-15T04:53:33.924Z,7.60
2023-04-15T04:58:56.762Z,8.63
2023-04-15T05:04:19.456Z,7.58
2023-04-15T05:09:42.504Z,8.40
2023-04-15T05:15:04.787Z,7.90
2023-04-15T05:20:27.546Z,8.55
2023-04-15T05:25:50.513Z,8.88
2023-04-15T05:31:13.408Z,8.38
2023-04-15T05:36:35.928Z,9.45
2023-04-15T05:41:58.772Z,9.50
2023-04-15T05:47:21.620Z,9.10
2023-04-15T05:52:46.565Z,8.58
2023-04-15T05:58:08.903Z,9.55
2023-04-15T06:03:31.904Z,8.55
2023-04-15T06:08:56.239Z,8.85
2023-04-15T06:14:19.374Z,9.90
2023-04-15T06:19:43.209Z,10.05
2023-04-15T06:25:05.812Z,9.08
2023-04-15T06:30:28.421Z,10.45
2023-04-15T06:35:51.358Z,10.48
2023-04-15T06:41:13.818Z,10.75
2023-04-15T06:46:36.095Z,9.98
2023-04-15T06:51:58.532Z,11.12
2023-04-15T06:57:20.800Z,10.85
2023-04-15T07:02:43.436Z,10.50
2023-04-15T07:08:07.180Z,10.30
2023-04-15T07:13:29.509Z,9.73
2023-04-15T07:18:52.042Z,9.38
2023-04-15T07:24:16.399Z,9.48
2023-04-15T07:29:38.665Z,9.88
2023-04-15T07:35:01.388Z,9.58
2023-04-15T07:40:25.429Z,10.05
2023-04-15T07:45:50.079Z,10.50
2023-04-15T07:51:14.150Z,10.13
2023-04-15T07:56:36.503Z,10.18
2023-04-15T08:01:59.736Z,11.15
2023-04-15T08:07:23.439Z,10.48
2023-04-15T08:12:47.719Z,10.40
2023-04-15T08:18:10.170Z,12.50
2023-04-15T08:23:33.081Z,16.62
2023-04-15T08:28:58.317Z,10.00
2023-04-15T08:34:23.381Z,9.38
2023-04-15T08:39:48.792Z,9.53
2023-04-15T08:45:15.100Z,10.75
2023-04-15T08:50:39.487Z,9.93
2023-04-15T08:56:08.843Z,10.28
2023-04-15T09:01:32.807Z,10.78
2023-04-15T09:06:57.858Z,10.50
2023-04-15T09:12:23.268Z,10.18
2023-04-15T09:17:50.405Z,10.58
2023-04-15T09:23:14.706Z,10.08
2023-04-15T09:28:41.202Z,10.13
2023-04-15T09:34:16.302Z,9.90
2023-04-15T09:39:41.918Z,9.43
2023-04-15T09:45:07.384Z,9.95
2023-04-15T09:50:34.125Z,11.15
2023-04-15T10:01:36.455Z,9.00
2023-04-15T10:07:00.248Z,9.13
2023-04-15T10:12:26.792Z,9.33
2023-04-15T10:17:50.925Z,9.40
2023-04-15T10:23:16.075Z,10.78
2023-04-15T10:28:42.163Z,10.60
2023-04-15T10:34:07.804Z,9.95
2023-04-15T10:39:52.771Z,10.90
2023-04-15T10:45:22.088Z,9.27
2023-04-15T10:50:47.614Z,10.13
2023-04-15T10:56:12.510Z,14.18
2023-04-15T11:01:54.770Z,8.70
2023-04-15T11:07:48.718Z,8.58
2023-04-15T11:13:18.061Z,8.38
2023-04-15T11:18:46.498Z,7.83
2023-04-15T11:24:10.389Z,8.08
2023-04-15T11:29:40.949Z,8.25
2023-04-15T11:35:06.495Z,8.33
2023-04-15T11:40:31.260Z,7.87
2023-04-15T11:46:02.820Z,7.83
2023-04-15T11:51:26.756Z,8.10
2023-04-15T11:56:49.021Z,8.25
2023-04-15T12:02:13.828Z,7.67
2023-04-15T12:07:37.043Z,8.37
2023-04-15T12:13:01.376Z,8.23
2023-04-15T12:18:26.112Z,8.30
2023-04-15T12:24:02.997Z,9.48
2023-04-15T12:29:28.678Z,9.55
2023-04-15T12:35:00.424Z,8.40
2023-04-15T12:40:23.185Z,8.35
2023-04-15T12:45:46.511Z,8.43
2023-04-15T12:51:09.348Z,7.93
2023-04-15T12:56:31.632Z,7.67
2023-04-15T13:01:55.874Z,7.62
2023-04-15T13:07:18.444Z,7.47
2023-04-15T13:12:41.905Z,7.87
2023-04-15T13:18:04.160Z,7.30
2023-04-15T13:23:26.660Z,7.00
2023-04-15T13:28:49.037Z,7.62
2023-04-15T13:34:11.501Z,7.05
2023-04-15T13:39:34.211Z,7.47
2023-04-15T13:44:57.104Z,7.43
2023-04-15T13:50:19.836Z,7.33
2023-04-15T13:55:43.442Z,7.87
2023-04-15T14:01:07.320Z,6.87
2023-04-15T14:06:30.925Z,6.73
2023-04-15T14:11:53.230Z,6.42
2023-04-15T14:17:16.659Z,7.20
2023-04-15T14:22:38.936Z,6.10
2023-04-15T14:28:01.457Z,5.80
2023-04-15T14:33:08.967Z,5.50
2023-04-15T14:38:31.822Z,5.30
2023-04-15T14:43:54.749Z,5.63
2023-04-15T14:49:17.136Z,5.87
2023-04-15T14:54:39.399Z,6.00
2023-04-15T15:00:01.864Z,17.77
2023-04-15T15:05:24.410Z,6.60
2023-04-15T15:10:49.465Z,6.62
2023-04-15T15:16:14.470Z,6.08
2023-04-15T15:21:37.638Z,6.17
2023-04-15T15:27:00.083Z,5.62
2023-04-15T15:32:46.166Z,6.03
2023-04-15T15:38:08.510Z,5.90
2023-04-15T15:43:30.860Z,5.12
2023-04-15T15:48:53.364Z,5.50
2023-04-15T15:54:15.805Z,5.08
2023-04-15T15:59:42.404Z,5.22
2023-04-15T16:05:04.675Z,5.50
2023-04-15T16:10:27.833Z,7.42
2023-04-15T16:15:56.124Z,4.75
2023-04-15T16:21:21.183Z,5.70
2023-04-15T16:26:45.543Z,5.33
2023-04-15T16:32:08.058Z,4.90
2023-04-15T16:37:31.899Z,4.45
2023-04-15T16:42:54.189Z,5.07
2023-04-15T16:48:16.747Z,5.00
2023-04-15T16:53:39.947Z,4.53
2023-04-15T16:59:02.754Z,5.00
2023-04-15T17:04:27.562Z,4.90
2023-04-15T17:09:54.382Z,5.22
2023-04-15T17:15:19.042Z,4.40
2023-04-15T17:20:43.689Z,5.30
2023-04-15T17:26:06.894Z,5.87
2023-04-15T17:31:30.903Z,6.67
2023-04-15T17:36:59.639Z,5.53
2023-04-15T17:42:24.226Z,5.73
2023-04-15T17:47:46.681Z,4.87
2023-04-15T17:53:09.011Z,4.53
2023-04-15T17:58:32.747Z,4.15
2023-04-15T18:03:56.092Z,3.98
2023-04-15T18:09:20.540Z,4.15
2023-04-15T18:14:42.874Z,3.83
2023-04-15T18:20:07.321Z,4.40
2023-04-15T18:25:30.863Z,4.05
2023-04-15T18:30:54.878Z,4.40
2023-04-15T18:36:19.312Z,4.53
2023-04-15T18:41:44.310Z,4.12
2023-04-15T18:47:25.267Z,4.37
2023-04-15T18:52:47.273Z,4.35
2023-04-15T18:58:10.194Z,4.90
2023-04-15T19:03:33.441Z,5.10
2023-04-15T19:08:57.554Z,4.77
2023-04-15T19:14:21.637Z,4.93
2023-04-15T19:19:45.876Z,5.53
2023-04-15T19:25:11.047Z,7.27
2023-04-15T19:30:34.201Z,5.83
2023-04-15T19:35:57.308Z,5.10
2023-04-15T19:41:19.547Z,5.30
2023-04-15T19:46:45.256Z,4.50
2023-04-15T19:52:08.118Z,4.60
2023-04-15T19:57:31.775Z,4.80
2023-04-15T20:02:56.933Z,4.83
2023-04-15T20:08:22.384Z,5.05
2023-04-15T20:13:47.154Z,4.17
2023-04-15T20:19:13.196Z,3.97
2023-04-15T20:24:35.677Z,3.53
2023-04-15T20:30:00.739Z,3.33
2023-04-15T20:35:29.830Z,3.77
2023-04-15T20:40:52.787Z,3.77
2023-04-15T20:46:21.550Z,4.25
2023-04-15T20:51:42.326Z,4.37
2023-04-15T20:57:06.360Z,3.70
2023-04-15T21:02:31.004Z,3.87
2023-04-15T21:07:54.651Z,3.60
2023-04-15T21:13:18.155Z,4.07
2023-04-15T21:18:42.566Z,3.90
2023-04-15T21:24:07.718Z,3.83
2023-04-15T21:29:32.170Z,3.77
2023-04-15T21:34:55.837Z,4.37
2023-04-15T21:40:19.724Z,4.00
2023-04-15T21:46:21.339Z,4.35
2023-04-15T21:51:11.812Z,3.98
2023-04-15T21:56:34.447Z,4.12
2023-04-15T22:01:56.885Z,4.10
2023-04-15T22:07:21.684Z,4.12
2023-04-15T22:12:44.003Z,4.03
2023-04-15T22:18:07.536Z,3.77
2023-04-15T22:23:29.893Z,3.77
2023-04-15T22:28:52.241Z,3.53
2023-04-15T22:34:16.119Z,3.80
2023-04-15T22:39:40.985Z,3.72
2023-04-15T22:45:05.448Z,3.90
2023-04-15T22:50:29.565Z,3.50
2023-04-15T22:55:55.243Z,3.40
2023-04-15T23:01:21.103Z,3.77
2023-04-15T23:06:46.267Z,4.30
2023-04-15T23:12:11.238Z,4.70
2023-04-15T23:17:35.144Z,4.63
2023-04-15T23:22:59.729Z,4.37
2023-04-15T23:28:23.684Z,4.43
2023-04-15T23:33:48.293Z,4.90
2023-04-15T23:39:11.872Z,4.30
2023-04-15T23:44:36.208Z,4.70
2023-04-15T23:50:00.808Z,4.10
2023-04-15T23:55:24.508Z,4.10
